Time;durP1;ratioP1;P1;durP2;ratioP2;P2;SDS_P1;SDS_P2;PMS_P1;PMS_P2;Temp;Humidity;BMP_temperature;BMP_pressure;BME280_temperature;BME280_humidity;BME280_pressure;Samples;Min_cycle;Max_cycle;Signal;HPM_P1;HPM_P2
2022/09/17 00:00:46;;;;;;;11.80;6.87;;;;;;;11.90;73.71;99551.59;1721565;81;21522;-60
2022/09/17 00:03:13;;;;;;;10.40;7.05;;;;;;;11.87;73.56;99541.38;1734540;81;21076;-60
2022/09/17 00:05:39;;;;;;;9.48;6.37;;;;;;;11.84;73.36;99552.22;1722248;81;21552;-60
2022/09/17 00:08:09;;;;;;;9.45;6.35;;;;;;;11.84;73.21;99553.03;1724926;81;21272;-60
2022/09/17 00:10:41;;;;;;;8.08;6.05;;;;;;;11.87;73.48;99561.14;1717538;81;21631;-60
2022/09/17 00:13:09;;;;;;;8.75;6.47;;;;;;;11.88;73.87;99554.88;1732587;81;21059;-60
2022/09/17 00:15:44;;;;;;;9.43;6.33;;;;;;;11.89;74.21;99557.36;1699036;82;21090;-60
2022/09/17 00:18:12;;;;;;;9.08;6.03;;;;;;;11.92;74.08;99558.91;1698997;82;21102;-60
2022/09/17 00:20:43;;;;;;;12.07;6.37;;;;;;;11.95;73.75;99549.36;1702136;82;22177;-60
2022/09/17 00:23:10;;;;;;;9.00;6.30;;;;;;;11.96;73.70;99540.48;1705311;82;21090;-60
2022/09/17 00:26:50;;;;;;;9.80;6.83;;;;;;;11.96;73.90;99529.93;1806741;78;22765;-62
2022/09/17 00:29:17;;;;;;;10.20;6.37;;;;;;;11.97;73.55;99527.64;1782402;80;21038;-61
2022/09/17 00:31:43;;;;;;;8.55;5.35;;;;;;;11.93;73.68;99524.14;1779363;80;22267;-61
2022/09/17 00:34:11;;;;;;;8.78;6.58;;;;;;;11.90;73.75;99525.23;1790593;78;21015;-61
2022/09/17 00:36:38;;;;;;;8.43;6.05;;;;;;;11.92;73.71;99531.23;1771539;78;21022;-61
2022/09/17 00:39:08;;;;;;;9.15;6.45;;;;;;;11.92;73.83;99531.23;1776514;80;21102;-62
2022/09/17 00:41:35;;;;;;;9.53;6.28;;;;;;;11.90;74.19;99523.91;1768915;80;21094;-62
2022/09/17 00:44:41;;;;;;;9.23;5.90;;;;;;;11.89;74.49;99520.45;1764952;80;21155;-62
2022/09/17 00:47:35;;;;;;;9.10;6.67;;;;;;;11.94;74.63;99521.36;1766779;80;21038;-59
2022/09/17 00:50:09;;;;;;;9.00;6.55;;;;;;;12.02;74.46;99529.80;1744663;80;21016;-62
2022/09/17 00:52:51;;;;;;;9.18;7.00;;;;;;;12.04;74.46;99519.45;1749667;80;21101;-61
2022/09/17 00:55:28;;;;;;;8.85;6.20;;;;;;;12.04;74.69;99522.59;1783083;80;21044;-60
2022/09/17 00:57:59;;;;;;;11.75;6.12;;;;;;;12.03;74.88;99518.28;1746479;79;21183;-60
2022/09/17 01:00:26;;;;;;;10.72;6.83;;;;;;;12.04;74.87;99526.05;1776390;79;21110;-60
2022/09/17 01:02:53;;;;;;;9.43;6.35;;;;;;;12.12;74.81;99522.66;1783588;78;21014;-60
2022/09/17 01:05:25;;;;;;;8.58;5.95;;;;;;;12.18;74.69;99521.20;1775910;78;21492;-61
2022/09/17 01:08:09;;;;;;;9.85;6.20;;;;;;;12.17;74.82;99520.84;1772673;79;21051;-60
2022/09/17 01:11:05;;;;;;;8.43;6.60;;;;;;;12.15;74.87;99526.77;1769123;78;21383;-60
2022/09/17 01:14:08;;;;;;;9.08;6.58;;;;;;;12.12;75.05;99550.81;1781418;80;21078;-61
2022/09/17 01:17:02;;;;;;;9.03;5.95;;;;;;;12.15;75.23;99555.28;1645175;85;21157;-60
2022/09/17 01:20:03;;;;;;;9.63;6.90;;;;;;;12.24;75.26;99554.38;1633425;85;21047;-60
2022/09/17 01:22:41;;;;;;;9.83;7.20;;;;;;;12.29;75.28;99546.02;1738354;80;21038;-60
2022/09/17 01:25:42;;;;;;;10.15;7.17;;;;;;;12.26;75.32;99538.41;1735028;80;21639;-60
2022/09/17 01:28:35;;;;;;;10.35;6.97;;;;;;;12.24;75.36;99550.92;1776177;79;21007;-60
2022/09/17 01:31:43;;;;;;;9.35;6.70;;;;;;;12.23;75.28;99550.08;1762274;79;21511;-60
2022/09/17 01:34:16;;;;;;;10.75;6.83;;;;;;;12.25;75.19;99554.73;1763832;79;21043;-60
2022/09/17 01:37:06;;;;;;;8.98;6.17;;;;;;;12.30;75.45;99560.02;1773675;79;21090;-60
2022/09/17 01:39:53;;;;;;;9.43;6.78;;;;;;;12.30;75.44;99555.56;1769545;80;21512;-60
2022/09/17 01:42:50;;;;;;;9.23;6.33;;;;;;;12.25;75.29;99554.73;1747692;80;21051;-60
2022/09/17 01:45:51;;;;;;;11.45;6.55;;;;;;;12.24;75.29;99553.56;1769291;79;21454;-60
2022/09/17 01:48:19;;;;;;;8.95;5.97;;;;;;;12.29;75.17;99547.80;1769270;79;21122;-60
2022/09/17 01:51:05;;;;;;;11.43;6.42;;;;;;;12.30;75.20;99556.06;1773340;79;21059;-60
2022/09/17 01:53:52;;;;;;;10.82;6.95;;;;;;;12.27;75.19;99558.50;1771478;80;21145;-60
2022/09/17 01:56:23;;;;;;;8.85;6.70;;;;;;;12.24;75.17;99566.75;1774718;79;21090;-60
2022/09/17 01:58:58;;;;;;;9.05;6.08;;;;;;;12.23;75.30;99557.17;1763017;79;20979;-61
2022/09/17 02:01:24;;;;;;;9.85;6.53;;;;;;;12.29;75.20;99559.20;1767520;79;21043;-60
2022/09/17 02:04:02;;;;;;;9.68;6.70;;;;;;;12.32;75.24;99570.73;1708301;82;20996;-60
2022/09/17 02:06:31;;;;;;;8.83;6.12;;;;;;;12.34;75.51;99574.08;1779450;79;21186;-61
2022/09/17 02:09:21;;;;;;;7.85;5.55;;;;;;;12.37;75.63;99575.09;1736130;80;21078;-61
2022/09/17 02:11:52;;;;;;;7.62;6.20;;;;;;;12.40;75.59;99571.30;1776216;80;21074;-60
2022/09/17 02:14:23;;;;;;;9.13;6.72;;;;;;;12.48;75.46;99567.40;1756774;80;21090;-60
2022/09/17 02:16:54;;;;;;;7.30;5.22;;;;;;;12.52;75.33;99567.91;1773486;79;21046;-60
2022/09/17 02:19:24;;;;;;;7.95;5.60;;;;;;;12.51;75.35;99572.84;1772527;79;21673;-60
2022/09/17 02:22:07;;;;;;;10.18;6.30;;;;;;;12.49;75.46;99569.53;1767750;79;21070;-61
2022/09/17 02:25:03;;;;;;;8.30;6.10;;;;;;;12.49;75.55;99573.49;1786732;79;21019;-60
2022/09/17 02:28:07;;;;;;;8.70;6.42;;;;;;;12.57;75.51;99574.87;1766943;79;22232;-61
2022/09/17 02:30:35;;;;;;;11.28;6.35;;;;;;;12.63;75.47;99576.89;1783550;79;21079;-60
2022/09/17 02:33:03;;;;;;;10.28;6.70;;;;;;;12.65;75.66;99573.60;1767360;79;21289;-61
2022/09/17 02:35:32;;;;;;;9.73;5.90;;;;;;;12.64;75.64;99578.06;1665228;82;21048;-61
2022/09/17 02:37:59;;;;;;;8.33;6.28;;;;;;;12.69;75.77;99582.03;1703600;82;21521;-61
2022/09/17 02:40:28;;;;;;;8.28;5.35;;;;;;;12.77;75.59;99572.84;1763759;79;21031;-61
2022/09/17 02:43:28;;;;;;;7.42;5.15;;;;;;;12.82;75.39;99574.52;1760168;79;21504;-61
2022/09/17 02:46:30;;;;;;;8.68;5.60;;;;;;;12.82;75.38;99563.95;1768516;79;22412;-62
2022/09/17 02:49:26;;;;;;;8.43;5.78;;;;;;;12.81;75.67;99571.56;1759404;79;21019;-61
2022/09/17 02:52:05;;;;;;;8.25;5.47;;;;;;;12.78;75.79;99567.41;1762605;79;21806;-61
2022/09/17 02:54:59;;;;;;;10.25;5.95;;;;;;;12.82;75.78;99570.56;1784874;79;21047;-60
2022/09/17 02:57:53;;;;;;;10.43;5.72;;;;;;;12.86;75.52;99573.23;1758959;80;21095;-61
2022/09/17 03:00:21;;;;;;;7.67;5.78;;;;;;;12.88;75.46;99575.22;1762649;79;21237;-61
2022/09/17 03:03:08;;;;;;;9.18;5.78;;;;;;;12.88;75.32;99559.84;1758940;80;21013;-61
2022/09/17 03:05:35;;;;;;;;;;;;;;;12.83;75.38;99552.42;1768030;79;21078;-60
2022/09/17 03:08:02;;;;;;;9.10;6.22;;;;;;;12.79;75.62;99556.34;1764737;79;20586;-61
2022/09/17 03:10:32;;;;;;;10.32;6.67;;;;;;;12.73;75.89;99555.17;1762842;79;21051;-60
2022/09/17 03:12:57;;;;;;;9.68;5.65;;;;;;;12.73;75.88;99556.50;1757460;80;21139;-60
2022/09/17 03:15:24;;;;;;;10.88;6.60;;;;;;;12.77;75.89;99555.69;1757678;80;21042;-60
2022/09/17 03:17:51;;;;;;;8.80;5.97;;;;;;;12.79;75.83;99556.34;1764260;80;21051;-60
2022/09/17 03:20:18;;;;;;;7.92;6.22;;;;;;;12.78;75.83;99567.41;1758424;80;21507;-61
2022/09/17 03:22:46;;;;;;;9.15;6.33;;;;;;;12.79;75.95;99566.91;1767539;80;21027;-60
2022/09/17 03:25:12;;;;;;;9.55;6.35;;;;;;;12.78;75.93;99561.31;1765166;79;21210;-60
2022/09/17 03:27:39;;;;;;;9.90;6.03;;;;;;;12.77;75.81;99563.60;1767525;79;21046;-61
2022/09/17 03:30:06;;;;;;;10.95;6.67;;;;;;;12.77;75.57;99563.09;1767599;79;21096;-61
2022/09/17 03:32:33;;;;;;;7.85;5.47;;;;;;;12.80;75.43;99554.05;1774257;79;21026;-61
2022/09/17 03:35:00;;;;;;;11.35;6.50;;;;;;;12.86;75.48;99551.27;1767375;79;22177;-61
2022/09/17 03:37:27;;;;;;;8.20;6.08;;;;;;;12.88;75.46;99551.92;1767662;79;21825;-60
2022/09/17 03:39:54;;;;;;;8.65;6.47;;;;;;;12.85;75.53;99552.27;1763192;79;21040;-60
2022/09/17 03:42:20;;;;;;;7.62;5.58;;;;;;;12.83;75.74;99552.42;1773601;79;20991;-61
2022/09/17 03:44:47;;;;;;;8.20;6.25;;;;;;;12.81;75.70;99541.20;1767393;79;21015;-60
2022/09/17 03:47:15;;;;;;;8.63;6.47;;;;;;;12.87;75.49;99548.97;1763831;79;21101;-61
2022/09/17 03:49:42;;;;;;;8.13;6.95;;;;;;;12.89;75.51;99546.99;1769036;80;21930;-60
2022/09/17 03:52:08;;;;;;;9.08;6.12;;;;;;;12.87;75.65;99547.65;1770340;79;21019;-60
2022/09/17 03:54:36;;;;;;;8.60;6.17;;;;;;;12.85;75.60;99545.17;1757638;80;21530;-60
2022/09/17 03:57:03;;;;;;;10.15;6.47;;;;;;;12.83;75.55;99549.28;1763630;79;21528;-61
2022/09/17 03:59:30;;;;;;;9.70;6.28;;;;;;;12.85;75.49;99552.27;1772076;79;21102;-60
2022/09/17 04:01:56;;;;;;;12.00;6.08;;;;;;;12.91;75.33;99555.58;1763853;79;21578;-61
2022/09/17 04:04:23;;;;;;;9.05;6.22;;;;;;;12.98;75.10;99564.55;1768039;79;20987;-61
2022/09/17 04:06:49;;;;;;;9.05;6.12;;;;;;;13.00;75.03;99559.92;1775467;79;21022;-61
2022/09/17 04:09:16;;;;;;;10.95;6.40;;;;;;;13.00;74.93;99559.42;1762243;80;20856;-61
2022/09/17 04:11:43;;;;;;;9.48;6.50;;;;;;;12.98;74.83;99564.04;1769951;79;21509;-61
2022/09/17 04:14:09;;;;;;;9.03;6.53;;;;;;;12.94;74.79;99574.56;1768447;79;21771;-62
2022/09/17 04:16:35;;;;;;;9.83;6.00;;;;;;;12.95;74.57;99577.55;1766040;79;21047;-61
2022/09/17 04:19:02;;;;;;;10.45;6.70;;;;;;;13.00;74.37;99574.45;1767458;80;21041;-61
2022/09/17 04:21:29;;;;;;;8.48;6.08;;;;;;;13.03;74.31;99575.45;1767194;80;21133;-61
2022/09/17 04:23:55;;;;;;;8.75;6.22;;;;;;;13.08;74.42;99577.13;1763088;80;21585;-61
2022/09/17 04:26:21;;;;;;;8.73;6.42;;;;;;;13.14;74.42;99580.94;1770641;79;21233;-61
2022/09/17 04:28:48;;;;;;;8.25;5.70;;;;;;;13.12;74.30;99589.02;1759643;80;21069;-61
2022/09/17 04:31:14;;;;;;;8.63;5.80;;;;;;;13.13;74.24;99594.64;1762322;79;21068;-61
2022/09/17 04:33:41;;;;;;;9.18;6.67;;;;;;;13.20;73.71;99597.48;1764642;79;21029;-61
2022/09/17 04:36:07;;;;;;;10.45;6.47;;;;;;;13.20;73.15;99593.52;1761357;79;20999;-61
2022/09/17 04:38:35;;;;;;;9.18;5.90;;;;;;;13.14;73.17;99608.67;1761175;79;21122;-61
2022/09/17 04:41:01;;;;;;;11.12;6.25;;;;;;;13.10;73.29;99609.48;1768681;79;21086;-61
2022/09/17 04:43:28;;;;;;;8.63;5.62;;;;;;;13.07;73.44;99598.41;1760560;80;21047;-61
2022/09/17 04:45:54;;;;;;;9.68;5.95;;;;;;;13.10;73.41;99588.86;1759364;79;21774;-61
2022/09/17 04:48:21;;;;;;;11.95;6.45;;;;;;;13.17;73.24;99609.17;1752285;79;21702;-61
2022/09/17 04:50:47;;;;;;;8.95;5.83;;;;;;;13.22;73.11;99607.89;1755831;79;21289;-61
2022/09/17 04:53:14;;;;;;;9.45;6.40;;;;;;;13.22;73.09;99606.06;1763386;80;21122;-61
2022/09/17 04:55:42;;;;;;;8.75;6.40;;;;;;;13.22;73.14;99599.46;1758826;80;21031;-61
2022/09/17 04:58:08;;;;;;;8.88;6.00;;;;;;;13.23;73.10;99592.36;1756379;80;21080;-61
2022/09/17 05:00:35;;;;;;;6.75;5.62;;;;;;;13.26;73.06;99590.22;1756911;80;21113;-61
2022/09/17 05:03:02;;;;;;;8.78;5.95;;;;;;;13.36;72.88;99584.84;1765508;80;21545;-61
2022/09/17 05:05:28;;;;;;;13.10;6.22;;;;;;;13.45;72.71;99584.36;1762172;80;21045;-61
2022/09/17 05:07:56;;;;;;;7.97;6.20;;;;;;;13.47;72.50;99582.41;1759956;79;21455;-61
2022/09/17 05:10:22;;;;;;;9.90;6.65;;;;;;;13.46;72.40;99588.67;1726701;81;21121;-61
2022/09/17 05:12:50;;;;;;;8.83;6.53;;;;;;;13.47;72.67;99599.09;1725522;81;21122;-61
2022/09/17 05:15:17;;;;;;;10.43;5.67;;;;;;;13.53;72.56;99609.50;1761741;80;21141;-61
2022/09/17 05:17:44;;;;;;;8.55;5.97;;;;;;;13.60;72.42;99610.53;1761901;79;21077;-61
2022/09/17 05:20:11;;;;;;;9.40;5.90;;;;;;;13.68;72.46;99606.55;1762076;79;21064;-61
2022/09/17 05:22:46;;;;;;;9.15;6.25;;;;;;;13.75;72.31;99597.01;1760431;79;21059;-61
2022/09/17 05:25:13;;;;;;;9.23;6.40;;;;;;;13.79;72.33;99608.08;1766321;79;21159;-61
2022/09/17 05:27:40;;;;;;;8.60;5.87;;;;;;;13.80;72.47;99614.19;1767512;79;21134;-61
2022/09/17 05:30:08;;;;;;;14.68;5.97;;;;;;;13.86;72.56;99607.75;1757790;79;21032;-62
2022/09/17 05:32:35;;;;;;;11.20;6.03;;;;;;;13.94;72.36;99614.88;1771940;79;21038;-61
2022/09/17 05:35:04;;;;;;;10.93;6.55;;;;;;;13.99;72.30;99614.41;1777189;79;21120;-62
2022/09/17 05:37:31;;;;;;;10.13;6.67;;;;;;;14.03;72.53;99613.07;1770409;79;21086;-61
2022/09/17 05:39:58;;;;;;;13.00;7.12;;;;;;;14.03;72.60;99609.10;1762076;80;21366;-62
2022/09/17 05:42:24;;;;;;;12.33;7.83;;;;;;;14.05;72.62;99613.73;1774006;79;21015;-61
2022/09/17 05:44:51;;;;;;;10.90;7.12;;;;;;;14.05;72.29;99607.11;1760186;79;21015;-62
2022/09/17 05:47:17;;;;;;;12.13;7.12;;;;;;;14.04;71.84;99602.84;1763740;79;21681;-62
2022/09/17 05:49:43;;;;;;;9.43;6.72;;;;;;;14.10;71.83;99607.45;1770362;79;21539;-62
2022/09/17 05:52:10;;;;;;;16.60;7.67;;;;;;;14.14;71.90;99604.81;1765361;79;21591;-62
2022/09/17 05:54:36;;;;;;;15.90;7.67;;;;;;;14.16;71.65;99605.98;1768699;79;21084;-62
2022/09/17 05:57:04;;;;;;;16.93;7.87;;;;;;;14.14;71.43;99595.56;1767080;79;21123;-62
2022/09/17 05:59:31;;;;;;;11.85;6.97;;;;;;;14.13;71.50;99601.33;1769224;79;21110;-62
2022/09/17 06:01:57;;;;;;;13.98;8.15;;;;;;;14.18;71.56;99599.52;1771179;80;21097;-62
2022/09/17 06:04:24;;;;;;;16.07;9.73;;;;;;;14.26;71.29;99608.78;1770449;79;21503;-62
2022/09/17 06:06:50;;;;;;;15.13;8.43;;;;;;;14.27;71.12;99607.80;1762534;78;21739;-62
2022/09/17 06:09:17;;;;;;;18.37;7.87;;;;;;;14.27;71.24;99605.63;1759398;79;21058;-61
2022/09/17 06:11:43;;;;;;;15.15;9.25;;;;;;;14.28;71.21;99613.41;1761161;80;21059;-62
2022/09/17 06:14:10;;;;;;;10.72;7.45;;;;;;;14.27;71.27;99617.06;1767300;80;21056;-62
2022/09/17 06:16:37;;;;;;;12.15;6.97;;;;;;;14.27;71.30;99611.77;1763777;79;21129;-61
2022/09/17 06:19:03;;;;;;;8.70;7.03;;;;;;;14.39;71.30;99602.14;1764249;79;21090;-61
2022/09/17 06:21:31;;;;;;;12.78;7.17;;;;;;;14.44;71.14;99602.00;1764261;80;21079;-62
2022/09/17 06:23:57;;;;;;;9.88;7.60;;;;;;;14.48;71.24;99601.16;1758375;79;21427;-62
2022/09/17 06:26:24;;;;;;;11.53;7.65;;;;;;;14.49;71.03;99599.67;1763011;80;21129;-62
2022/09/17 06:28:50;;;;;;;10.25;6.60;;;;;;;14.48;71.21;99597.19;1758945;80;21857;-62
2022/09/17 06:31:17;;;;;;;12.58;6.87;;;;;;;14.52;71.33;99593.20;1765948;80;21041;-62
2022/09/17 06:33:44;;;;;;;12.25;7.08;;;;;;;14.60;71.28;99600.34;1766677;79;21073;-62
2022/09/17 06:36:11;;;;;;;9.23;6.87;;;;;;;14.67;71.32;99592.87;1764109;80;21026;-62
2022/09/17 06:38:37;;;;;;;15.63;8.38;;;;;;;14.72;71.44;99601.64;1765329;80;21026;-62
2022/09/17 06:41:04;;;;;;;9.53;7.03;;;;;;;14.77;71.69;99609.08;1767396;79;21237;-61
2022/09/17 06:43:31;;;;;;;23.32;9.45;;;;;;;14.78;71.48;99614.72;1773932;80;21019;-62
2022/09/17 06:46:00;;;;;;;14.63;7.85;;;;;;;14.81;71.17;99613.03;1772879;79;21051;-62
2022/09/17 06:48:28;;;;;;;10.43;6.72;;;;;;;14.86;71.01;99614.67;1767415;79;21082;-62
2022/09/17 06:50:55;;;;;;;11.40;6.97;;;;;;;14.91;71.05;99614.17;1768240;79;21125;-62
2022/09/17 06:53:22;;;;;;;9.70;7.00;;;;;;;14.93;71.26;99618.32;1721127;82;21814;-62
2022/09/17 06:55:49;;;;;;;11.25;6.92;;;;;;;14.93;71.22;99620.13;1778267;79;21070;-62
2022/09/17 06:58:16;;;;;;;8.75;6.28;;;;;;;14.90;71.16;99626.60;1767186;80;21459;-62
2022/09/17 07:00:43;;;;;;;8.85;6.40;;;;;;;14.91;71.14;99625.62;1780841;79;21071;-62
2022/09/17 07:03:12;;;;;;;12.58;7.30;;;;;;;14.96;71.09;99628.58;1772083;79;21062;-62
2022/09/17 07:05:41;;;;;;;11.75;7.15;;;;;;;14.97;71.25;99631.54;1771178;79;21146;-62
2022/09/17 07:08:09;;;;;;;10.23;6.62;;;;;;;14.96;71.54;99629.91;1722028;80;21073;-62
2022/09/17 07:10:37;;;;;;;10.60;7.28;;;;;;;14.94;71.77;99631.05;1780298;79;20999;-62
2022/09/17 07:13:04;;;;;;;9.73;6.78;;;;;;;14.93;72.01;99638.19;1778079;80;21525;-62
2022/09/17 07:15:31;;;;;;;14.93;7.15;;;;;;;14.96;71.88;99640.50;1766999;79;21090;-62
2022/09/17 07:17:58;;;;;;;9.98;7.00;;;;;;;15.01;71.79;99643.47;1763259;80;21270;-63
2022/09/17 07:20:24;;;;;;;9.40;7.15;;;;;;;15.08;71.54;99646.74;1777139;79;21036;-62
2022/09/17 07:22:56;;;;;;;9.60;6.90;;;;;;;15.08;71.49;99642.77;1776153;79;21093;-62
2022/09/17 07:25:25;;;;;;;11.60;7.62;;;;;;;15.05;71.61;99632.03;1764676;79;21001;-62
2022/09/17 07:27:52;;;;;;;8.83;6.65;;;;;;;15.01;71.95;99633.34;1768577;80;21019;-60
2022/09/17 07:30:19;;;;;;;11.70;7.12;;;;;;;15.00;72.05;99632.53;1756659;80;21245;-62
2022/09/17 07:32:46;;;;;;;8.98;6.90;;;;;;;15.00;72.31;99638.34;1770005;80;21090;-62
2022/09/17 07:35:13;;;;;;;9.75;7.17;;;;;;;15.08;72.49;99634.82;1770460;79;21055;-62
2022/09/17 07:37:41;;;;;;;13.32;8.08;;;;;;;15.15;72.46;99638.46;1764170;80;21030;-60
2022/09/17 07:40:09;;;;;;;15.43;8.95;;;;;;;15.20;72.65;99644.08;1767076;80;21062;-61
2022/09/17 07:42:35;;;;;;;10.28;7.50;;;;;;;15.20;72.67;99640.09;1769376;80;21138;-61
2022/09/17 07:45:02;;;;;;;9.88;7.40;;;;;;;15.18;72.47;99644.24;1768195;80;21105;-61
2022/09/17 07:47:29;;;;;;;9.30;6.85;;;;;;;15.16;72.63;99644.07;1779739;80;21085;-61
2022/09/17 07:49:57;;;;;;;9.25;6.35;;;;;;;15.15;72.61;99642.44;1768331;80;21468;-61
2022/09/17 07:52:24;;;;;;;10.38;6.92;;;;;;;15.17;72.61;99637.28;1770106;80;21028;-61
2022/09/17 07:54:50;;;;;;;11.15;6.70;;;;;;;15.21;72.76;99631.13;1772491;80;21595;-61
2022/09/17 07:57:17;;;;;;;13.90;7.65;;;;;;;15.25;72.98;99625.84;1712817;83;21034;-61
2022/09/17 07:59:43;;;;;;;9.55;6.85;;;;;;;15.31;73.01;99628.28;1714203;82;21001;-61
2022/09/17 08:02:13;;;;;;;8.50;7.10;;;;;;;15.35;73.23;99626.96;1716073;82;21121;-61
2022/09/17 08:04:42;;;;;;;11.12;6.05;;;;;;;15.39;73.40;99622.95;1716473;81;21077;-61
2022/09/17 08:07:12;;;;;;;9.55;6.62;;;;;;;15.46;73.13;99627.06;1711846;82;21102;-61
2022/09/17 08:09:39;;;;;;;8.00;6.58;;;;;;;15.50;73.12;99624.38;1718941;82;21054;-61
2022/09/17 08:12:07;;;;;;;8.43;6.58;;;;;;;15.54;73.10;99631.00;1719529;83;21134;-61
2022/09/17 08:14:33;;;;;;;10.35;6.33;;;;;;;15.50;73.02;99638.48;1711671;81;21104;-61
2022/09/17 08:17:00;;;;;;;7.87;6.03;;;;;;;15.49;72.84;99643.95;1720310;83;21031;-61
2022/09/17 08:19:29;;;;;;;8.83;6.25;;;;;;;15.49;72.63;99654.56;1726488;83;21498;-61
2022/09/17 08:21:55;;;;;;;10.28;6.58;;;;;;;15.49;72.56;99654.05;1679321;83;21519;-61
2022/09/17 08:24:22;;;;;;;9.33;6.65;;;;;;;15.42;72.70;99645.96;1730955;82;21043;-61
2022/09/17 08:26:49;;;;;;;7.83;5.90;;;;;;;15.37;72.97;99643.52;1701255;83;21044;-61
2022/09/17 08:29:15;;;;;;;8.58;5.70;;;;;;;15.37;73.14;99638.21;1690458;83;21115;-61
2022/09/17 08:31:42;;;;;;;9.35;6.50;;;;;;;15.42;73.18;99630.05;1681803;84;21253;-61
2022/09/17 08:34:08;;;;;;;8.33;5.92;;;;;;;15.48;73.37;99629.86;1681304;84;22198;-61
2022/09/17 08:36:35;;;;;;;7.42;6.00;;;;;;;15.52;73.39;99627.20;1690625;84;21389;-61
2022/09/17 08:39:02;;;;;;;10.25;5.62;;;;;;;15.54;73.42;99637.13;1675714;85;21067;-61
2022/09/17 08:42:08;;;;;;;8.15;5.78;;;;;;;15.57;73.45;99633.31;1738791;81;21184;-61
2022/09/17 08:44:42;;;;;;;12.07;6.20;;;;;;;15.67;73.31;99631.75;1739383;80;21266;-61
2022/09/17 08:47:29;;;;;;;10.58;6.55;;;;;;;15.77;72.90;99637.20;1722732;80;21074;-61
2022/09/17 08:49:59;;;;;;;11.00;6.45;;;;;;;15.81;72.67;99629.72;1693234;83;21540;-61
2022/09/17 08:53:09;;;;;;;8.15;6.10;;;;;;;15.85;72.48;99626.21;1729675;82;21465;-60
2022/09/17 08:55:55;;;;;;;8.58;5.33;;;;;;;15.89;72.36;99624.88;1733586;82;21015;-61
2022/09/17 08:58:32;;;;;;;;;;;;;;;16.03;72.14;99620.63;1728323;82;21177;-60
2022/09/17 09:01:24;;;;;;;8.95;6.78;;;;;;;16.11;71.84;99613.42;1725878;82;20186;-61
2022/09/17 09:04:24;;;;;;;10.18;7.10;;;;;;;16.13;71.61;99611.41;1739112;80;22211;-61
2022/09/17 09:07:07;;;;;;;8.75;6.87;;;;;;;16.19;71.52;99615.69;1736130;82;21035;-61
2022/09/17 09:09:39;;;;;;;9.13;6.45;;;;;;;16.23;71.20;99619.65;1742218;80;21067;-62
2022/09/17 09:12:14;;;;;;;9.43;6.65;;;;;;;16.28;70.98;99605.34;1736140;80;22429;-62
2022/09/17 09:14:52;;;;;;;9.43;6.07;;;;;;;16.46;69.85;99607.17;1733355;82;21074;-61
2022/09/17 09:17:21;;;;;;;10.70;6.50;;;;;;;16.46;69.85;99607.17;1734535;81;21572;-62
2022/09/17 09:33:31;;;;;;;13.70;6.90;;;;;;;16.44;68.49;99619.81;1862410;75;23659;-46
2022/09/17 09:35:57;;;;;;;15.10;6.58;;;;;;;16.40;68.06;99619.83;1822517;77;21022;-47
2022/09/17 09:38:38;;;;;;;14.20;6.58;;;;;;;16.35;68.25;99607.59;1750843;80;21218;-47
2022/09/17 09:41:15;;;;;;;10.05;6.58;;;;;;;16.33;68.73;99601.64;1780986;78;21026;-47
2022/09/17 09:43:48;;;;;;;9.75;6.80;;;;;;;16.31;68.64;99601.00;1783840;78;21113;-47
2022/09/17 09:46:46;;;;;;;11.28;6.28;;;;;;;16.32;68.47;99606.62;1743248;80;21106;-47
2022/09/17 09:49:55;;;;;;;7.42;5.45;;;;;;;16.33;68.46;99600.31;1783546;79;20989;-47
2022/09/17 09:52:48;;;;;;;7.75;5.75;;;;;;;16.40;68.37;99593.27;1785886;78;21211;-47
2022/09/17 09:55:49;;;;;;;9.05;6.12;;;;;;;16.47;68.74;99600.02;1777309;79;21593;-47
2022/09/17 09:58:36;;;;;;;10.43;6.35;;;;;;;16.49;68.75;99598.84;1768523;80;20986;-46
2022/09/17 10:01:10;;;;;;;18.32;7.75;;;;;;;16.51;68.65;99616.74;1763494;79;20995;-47
2022/09/17 10:03:40;;;;;;;7.75;5.87;;;;;;;16.52;68.61;99617.56;1745010;80;21054;-46
2022/09/17 10:06:08;;;;;;;9.55;6.08;;;;;;;16.55;68.44;99602.59;1762630;80;21351;-48
2022/09/17 10:08:39;;;;;;;13.08;6.35;;;;;;;16.65;68.32;99602.34;1774508;79;21059;-46
2022/09/17 10:11:13;;;;;;;9.78;6.00;;;;;;;16.72;68.08;99609.90;1771239;80;21505;-46
2022/09/17 10:13:40;;;;;;;8.80;5.85;;;;;;;16.77;67.78;99606.19;1764787;80;21103;-49
2022/09/17 10:16:22;;;;;;;11.43;6.12;;;;;;;16.82;67.79;99597.17;1761373;80;21065;-46
2022/09/17 10:18:50;;;;;;;8.48;6.40;;;;;;;16.88;67.81;99618.25;1778543;80;21140;-47
2022/09/17 10:21:22;;;;;;;9.18;6.87;;;;;;;16.90;67.69;99616.23;1775609;80;21037;-47
2022/09/17 10:23:50;;;;;;;11.40;7.37;;;;;;;16.94;67.53;99617.50;1769730;80;21543;-47
2022/09/17 10:26:25;;;;;;;9.75;6.65;;;;;;;17.04;67.48;99627.86;1771648;80;21049;-46
2022/09/17 10:28:53;;;;;;;;;;;;;;;17.11;67.04;99623.45;1771046;80;21085;-47
2022/09/17 10:31:19;;;;;;;9.93;6.30;;;;;;;17.12;67.19;99619.80;1762356;80;21202;-48
2022/09/17 10:34:01;;;;;;;10.13;7.05;;;;;;;17.20;67.40;99613.06;1769338;79;22353;-47
2022/09/17 10:36:45;;;;;;;8.63;6.30;;;;;;;17.26;66.90;99612.81;1769769;80;21118;-51
2022/09/17 10:39:28;;;;;;;7.80;6.12;;;;;;;17.30;66.72;99610.60;1772832;80;21055;-49
2022/09/17 10:42:16;;;;;;;10.03;6.17;;;;;;;17.35;66.56;99608.20;1784941;78;21067;-46
2022/09/17 10:44:54;;;;;;;11.73;6.10;;;;;;;17.42;66.22;99605.15;1771658;78;21135;-47
2022/09/17 10:47:30;;;;;;;10.35;6.47;;;;;;;17.48;66.37;99604.38;1778930;80;21010;-47
2022/09/17 10:50:08;;;;;;;8.25;5.92;;;;;;;17.52;66.51;99600.36;1783745;80;21128;-48
2022/09/17 10:52:42;;;;;;;8.73;6.10;;;;;;;17.50;66.15;99601.05;1780537;80;21528;-47
2022/09/17 10:55:37;;;;;;;9.60;7.28;;;;;;;17.45;66.15;99594.95;1778916;79;21057;-46
2022/09/17 10:58:09;;;;;;;10.70;6.70;;;;;;;17.39;66.16;99601.53;1786032;78;21199;-47
2022/09/17 11:01:01;;;;;;;7.35;5.70;;;;;;;17.36;66.26;99600.05;1780020;79;21057;-46
2022/09/17 11:04:14;;;;;;;8.60;5.83;;;;;;;17.40;66.37;99606.66;1754224;79;21731;-46
2022/09/17 11:07:34;;;;;;;13.08;6.50;;;;;;;17.42;66.30;99605.96;1780581;78;21049;-46
2022/09/17 11:10:17;;;;;;;8.45;6.33;;;;;;;17.40;66.55;99600.02;1786430;79;21051;-47
2022/09/17 11:13:06;;;;;;;10.55;6.40;;;;;;;17.37;66.53;99594.25;1784504;78;21121;-47
2022/09/17 11:15:44;;;;;;;12.00;5.92;;;;;;;17.32;67.03;99598.78;1750444;79;21125;-47
2022/09/17 11:18:39;;;;;;;11.05;6.60;;;;;;;17.34;67.12;99589.30;1768107;80;21062;-47
2022/09/17 11:21:31;;;;;;;10.55;5.78;;;;;;;17.38;66.82;99587.41;1777975;79;21422;-47
2022/09/17 11:24:26;;;;;;;8.38;6.42;;;;;;;17.39;66.99;99593.55;1776383;78;21013;-47
2022/09/17 11:27:19;;;;;;;8.20;6.20;;;;;;;17.32;66.95;99586.01;1766668;80;21729;-47
2022/09/17 11:30:03;;;;;;;11.78;6.30;;;;;;;17.29;67.43;99582.39;1767288;80;21569;-47
2022/09/17 11:33:09;;;;;;;8.30;6.30;;;;;;;17.23;67.68;99574.14;1771470;80;21065;-45
2022/09/17 11:35:40;;;;;;;8.58;7.10;;;;;;;17.21;67.87;99572.16;1769673;79;21061;-46
2022/09/17 11:38:29;;;;;;;9.00;6.85;;;;;;;17.25;68.03;99564.14;1738826;80;21097;-46
2022/09/17 11:41:13;;;;;;;10.68;7.17;;;;;;;17.25;68.26;99563.33;1771925;80;21166;-46
2022/09/17 11:43:55;;;;;;;10.40;7.80;;;;;;;17.20;68.77;99570.52;1764076;80;21596;-46
2022/09/17 11:46:29;;;;;;;10.23;7.87;;;;;;;17.20;69.32;99565.20;1725888;80;21539;-47
2022/09/17 11:49:15;;;;;;;11.15;7.10;;;;;;;17.20;69.78;99556.41;1769192;80;21042;-46
2022/09/17 11:51:58;;;;;;;10.72;6.78;;;;;;;17.20;70.05;99551.10;1753526;80;20995;-46
2022/09/17 11:54:48;;;;;;;10.58;7.58;;;;;;;17.24;70.02;99542.55;1757567;80;21814;-46
2022/09/17 11:57:20;;;;;;;11.55;7.72;;;;;;;17.29;70.03;99539.84;1764774;80;21477;-48
2022/09/17 12:00:07;;;;;;;9.60;7.35;;;;;;;17.26;70.07;99545.86;1769845;80;21054;-46
2022/09/17 12:03:06;;;;;;;10.32;7.30;;;;;;;17.22;70.11;99547.23;1774334;80;21046;-46
2022/09/17 12:05:47;;;;;;;9.30;7.33;;;;;;;17.15;69.89;99544.19;1768243;80;21574;-46
2022/09/17 12:08:25;;;;;;;8.28;6.30;;;;;;;17.10;70.04;99536.77;1770082;80;21137;-46
2022/09/17 12:11:13;;;;;;;9.83;7.05;;;;;;;17.12;70.07;99534.73;1764874;80;20996;-46
2022/09/17 12:13:52;;;;;;;10.48;7.50;;;;;;;17.14;70.26;99534.04;1767464;80;21042;-46
2022/09/17 12:16:35;;;;;;;9.10;7.17;;;;;;;17.12;70.21;99537.91;1767899;79;21096;-46
2022/09/17 12:19:24;;;;;;;12.15;6.67;;;;;;;17.04;70.45;99532.19;1768984;80;21141;-46